createdAt,value
2019-05-22T00:01:33.666Z,12.10
2019-05-22T00:04:28.659Z,12.20
2019-05-22T00:07:00.956Z,12.10
2019-05-22T00:09:37.661Z,12.10
2019-05-22T00:12:10.996Z,12.10
2019-05-22T00:14:40.598Z,12.10
2019-05-22T00:17:10.170Z,12.10
2019-05-22T00:19:41.737Z,12.00
2019-05-22T00:22:15.511Z,12.10
2019-05-22T00:24:46.586Z,12.10
2019-05-22T00:27:17.430Z,12.00
2019-05-22T00:29:49.485Z,12.00
2019-05-22T00:32:30.432Z,12.10
2019-05-22T00:35:00.752Z,12.10
2019-05-22T00:37:29.569Z,12.20
2019-05-22T00:39:59.867Z,12.20
2019-05-22T00:42:31.572Z,12.10
2019-05-22T00:45:01.919Z,12.20
2019-05-22T00:47:33.123Z,12.30
2019-05-22T00:50:07.790Z,12.40
2019-05-22T00:52:49.879Z,12.40
2019-05-22T00:55:52.042Z,12.40
2019-05-22T00:58:33.066Z,12.30
2019-05-22T01:01:29.886Z,12.40
2019-05-22T01:04:01.201Z,12.40
2019-05-22T01:06:32.523Z,12.30
2019-05-22T01:09:07.159Z,12.40
2019-05-22T01:11:38.884Z,12.40
2019-05-22T01:14:09.167Z,12.40
2019-05-22T01:16:39.134Z,12.40
2019-05-22T01:19:10.132Z,12.40
2019-05-22T01:21:39.737Z,12.40
2019-05-22T01:24:09.886Z,12.40
2019-05-22T01:26:41.085Z,12.40
2019-05-22T01:29:10.990Z,12.50
2019-05-22T01:31:44.781Z,12.50
2019-05-22T01:34:20.088Z,12.50
2019-05-22T01:37:04.342Z,12.60
2019-05-22T01:39:47.024Z,12.50
2019-05-22T01:42:22.529Z,12.50
2019-05-22T01:45:04.660Z,12.50
2019-05-22T01:47:42.811Z,12.50
2019-05-22T01:50:18.022Z,12.50
2019-05-22T01:52:48.803Z,12.60
2019-05-22T01:55:20.215Z,12.60
2019-05-22T01:57:52.508Z,12.60
2019-05-22T02:00:21.055Z,12.50
2019-05-22T02:02:50.960Z,12.50
2019-05-22T02:05:20.417Z,12.50
2019-05-22T02:07:50.350Z,12.50
2019-05-22T02:10:25.293Z,12.50
2019-05-22T02:12:58.730Z,12.50
2019-05-22T02:15:30.052Z,12.50
2019-05-22T02:18:02.004Z,12.50
2019-05-22T02:20:31.633Z,12.50
2019-05-22T02:23:00.106Z,12.50
2019-05-22T02:25:29.895Z,12.50
2019-05-22T02:28:00.065Z,12.50
2019-05-22T02:30:30.037Z,12.60
2019-05-22T02:33:00.851Z,12.50
2019-05-22T02:35:30.211Z,12.60
2019-05-22T02:37:58.164Z,12.60
2019-05-22T02:40:32.238Z,12.60
2019-05-22T02:43:02.877Z,12.60
2019-05-22T02:45:31.870Z,12.60
2019-05-22T02:48:01.567Z,12.70
2019-05-22T02:50:33.742Z,12.70
2019-05-22T02:53:05.143Z,12.70
2019-05-22T02:55:35.032Z,12.60
2019-05-22T02:58:05.393Z,12.50
2019-05-22T03:00:47.135Z,12.50
2019-05-22T03:03:17.136Z,12.50
2019-05-22T03:05:45.650Z,12.50
2019-05-22T03:08:13.971Z,12.50
2019-05-22T03:10:42.825Z,12.50
2019-05-22T03:13:12.232Z,12.50
2019-05-22T03:15:41.614Z,12.60
2019-05-22T03:18:12.396Z,12.50
2019-05-22T03:20:42.928Z,12.60
2019-05-22T03:23:34.987Z,12.60
2019-05-22T03:26:07.610Z,12.50
2019-05-22T03:28:37.542Z,12.50
2019-05-22T03:31:06.989Z,12.40
2019-05-22T03:33:38.046Z,12.50
2019-05-22T03:36:09.039Z,12.50
2019-05-22T03:38:39.736Z,12.50
2019-05-22T03:41:10.353Z,12.50
2019-05-22T03:43:43.386Z,12.50
2019-05-22T03:46:33.910Z,12.50
2019-05-22T03:49:04.988Z,12.50
2019-05-22T03:51:35.057Z,12.50
2019-05-22T03:54:05.084Z,12.50
2019-05-22T03:56:38.835Z,12.50
2019-05-22T03:59:08.253Z,12.50
2019-05-22T04:01:37.036Z,12.50
2019-05-22T04:04:06.813Z,12.50
2019-05-22T04:06:36.466Z,12.50
2019-05-22T04:09:26.246Z,12.50
2019-05-22T04:11:55.292Z,12.50
2019-05-22T04:14:32.372Z,12.50
2019-05-22T04:17:01.839Z,12.60
2019-05-22T04:19:47.320Z,12.60
2019-05-22T04:22:00.192Z,12.60
2019-05-22T04:24:29.436Z,12.60
2019-05-22T04:26:58.005Z,12.50
2019-05-22T04:29:27.654Z,12.60
2019-05-22T04:31:59.724Z,12.60
2019-05-22T04:34:30.850Z,12.60
2019-05-22T04:37:00.499Z,12.70
2019-05-22T04:39:31.408Z,12.60
2019-05-22T04:42:01.194Z,12.70
2019-05-22T04:44:29.696Z,12.70
2019-05-22T04:46:59.896Z,12.60
2019-05-22T04:49:28.935Z,12.50
2019-05-22T04:51:57.182Z,12.50
2019-05-22T04:54:25.030Z,12.40
2019-05-22T04:56:52.886Z,12.50
2019-05-22T04:59:20.787Z,12.50
2019-05-22T05:01:49.432Z,12.40
2019-05-22T05:04:18.005Z,12.40
2019-05-22T05:06:46.720Z,12.50
2019-05-22T05:09:15.532Z,12.50
2019-05-22T05:11:43.542Z,12.60
2019-05-22T05:14:11.802Z,12.50
2019-05-22T05:16:39.837Z,12.50
2019-05-22T05:19:08.205Z,12.40
2019-05-22T05:21:37.659Z,12.40
2019-05-22T05:24:06.776Z,12.40
2019-05-22T05:26:36.913Z,12.40
2019-05-22T05:29:10.079Z,12.50
2019-05-22T05:31:40.701Z,12.50
2019-05-22T05:34:22.442Z,12.50
2019-05-22T05:36:54.019Z,12.60
2019-05-22T05:40:08.480Z,12.60
2019-05-22T05:42:40.661Z,12.60
2019-05-22T05:45:13.552Z,12.60
2019-05-22T05:47:42.913Z,12.60
2019-05-22T05:50:12.423Z,12.50
2019-05-22T05:52:42.167Z,12.50
2019-05-22T05:55:12.442Z,12.40
2019-05-22T05:58:31.649Z,12.50
2019-05-22T06:01:20.973Z,12.50
2019-05-22T06:03:50.749Z,12.70
2019-05-22T06:07:11.844Z,12.70
2019-05-22T06:09:41.516Z,12.70
2019-05-22T06:12:11.313Z,12.70
2019-05-22T06:14:41.359Z,12.60
2019-05-22T06:18:00.389Z,12.60
2019-05-22T06:20:30.000Z,12.60
2019-05-22T06:23:50.002Z,12.50
2019-05-22T06:26:52.765Z,12.50
2019-05-22T06:29:28.451Z,12.50
2019-05-22T06:32:46.072Z,12.40
2019-05-22T06:35:16.599Z,12.40
2019-05-22T06:37:59.126Z,12.40
2019-05-22T06:40:28.692Z,12.30
2019-05-22T06:43:50.570Z,12.30
2019-05-22T06:46:42.919Z,12.40
2019-05-22T06:49:43.550Z,12.40
2019-05-22T06:52:16.269Z,12.50
2019-05-22T06:54:44.763Z,12.50
2019-05-22T06:57:15.250Z,12.50
2019-05-22T06:59:46.199Z,12.40
2019-05-22T07:02:16.578Z,12.40
2019-05-22T07:04:45.662Z,12.50
2019-05-22T07:07:14.985Z,12.50
2019-05-22T07:09:44.942Z,12.50
2019-05-22T07:12:14.937Z,12.50
2019-05-22T07:15:37.453Z,12.50
2019-05-22T07:18:11.927Z,12.50
2019-05-22T07:20:41.428Z,12.50
2019-05-22T07:23:13.115Z,12.70
2019-05-22T07:25:43.896Z,12.70
2019-05-22T07:28:13.829Z,12.70
2019-05-22T07:30:43.614Z,12.80
2019-05-22T07:33:12.514Z,12.90
2019-05-22T07:36:04.635Z,13.00
2019-05-22T07:38:11.902Z,12.90
2019-05-22T07:40:40.690Z,12.80
2019-05-22T07:43:09.259Z,12.80
2019-05-22T07:45:37.263Z,12.80
2019-05-22T07:48:06.747Z,12.90
2019-05-22T07:50:37.677Z,12.80
2019-05-22T07:53:07.839Z,12.90
2019-05-22T07:55:36.141Z,13.00
2019-05-22T07:58:13.025Z,13.10
2019-05-22T08:00:47.023Z,13.10
2019-05-22T08:03:17.230Z,13.20
2019-05-22T08:05:53.108Z,13.10
2019-05-22T08:08:23.648Z,13.20
2019-05-22T08:10:54.635Z,13.20
2019-05-22T08:13:24.447Z,13.20
2019-05-22T08:15:53.508Z,13.10
2019-05-22T08:18:22.179Z,13.20
2019-05-22T08:20:51.481Z,13.20
2019-05-22T08:23:20.270Z,13.30
2019-05-22T08:25:48.605Z,13.30
2019-05-22T08:28:18.405Z,13.40
2019-05-22T08:30:48.580Z,13.40
2019-05-22T08:33:19.020Z,13.40
2019-05-22T08:35:48.483Z,13.30
2019-05-22T08:38:19.258Z,13.40
2019-05-22T08:40:50.426Z,13.40
2019-05-22T08:43:21.473Z,13.60
2019-05-22T08:45:49.566Z,13.70
2019-05-22T08:48:18.212Z,13.80
2019-05-22T08:50:46.944Z,14.00
2019-05-22T08:53:15.902Z,14.10
2019-05-22T08:55:46.109Z,14.20
2019-05-22T08:58:14.976Z,14.30
2019-05-22T09:00:44.150Z,14.50
2019-05-22T09:03:13.076Z,14.50
2019-05-22T09:05:41.795Z,14.30
2019-05-22T09:08:09.706Z,14.20
2019-05-22T09:10:37.754Z,14.10
2019-05-22T09:13:05.656Z,13.90
2019-05-22T09:15:34.391Z,13.70
2019-05-22T09:18:05.161Z,13.70
2019-05-22T09:20:48.989Z,13.70
2019-05-22T09:23:08.420Z,13.60
2019-05-22T09:25:36.774Z,13.70
2019-05-22T09:28:06.532Z,13.70
2019-05-22T09:30:34.785Z,13.70
2019-05-22T09:33:03.911Z,13.70
2019-05-22T09:35:32.195Z,13.70
2019-05-22T09:38:02.725Z,13.70
2019-05-22T09:40:31.738Z,13.70
2019-05-22T09:43:00.859Z,13.80
2019-05-22T09:45:28.722Z,13.80
2019-05-22T09:47:57.293Z,13.90
2019-05-22T09:50:28.516Z,14.00
2019-05-22T09:52:58.363Z,14.10
2019-05-22T09:55:26.495Z,14.10
2019-05-22T09:57:55.723Z,14.10
2019-05-22T10:00:24.429Z,14.10
2019-05-22T10:02:52.862Z,14.10
2019-05-22T10:05:21.182Z,14.10
2019-05-22T10:08:00.363Z,14.10
2019-05-22T10:10:19.815Z,14.10
2019-05-22T10:12:48.219Z,14.20
2019-05-22T10:15:16.549Z,14.10
2019-05-22T10:17:48.509Z,14.20
2019-05-22T10:20:17.293Z,14.10
2019-05-22T10:22:46.218Z,14.20
2019-05-22T10:25:16.675Z,14.20
2019-05-22T10:27:46.377Z,14.10
2019-05-22T10:30:18.667Z,14.10
2019-05-22T10:32:48.458Z,14.20
2019-05-22T10:35:18.487Z,14.20
2019-05-22T10:37:47.328Z,14.20
2019-05-22T10:40:18.291Z,14.30
2019-05-22T10:42:47.189Z,14.30
2019-05-22T10:49:13.601Z,14.50
2019-05-22T10:55:38.404Z,14.60
2019-05-22T10:55:51.083Z,14.60
2019-05-22T11:06:25.424Z,14.90
2019-05-22T11:08:53.861Z,15.00
2019-05-22T11:11:22.725Z,15.20
2019-05-22T11:14:01.376Z,15.40
2019-05-22T11:16:21.462Z,15.40
2019-05-22T11:18:50.906Z,15.40
2019-05-22T11:21:19.224Z,15.50
2019-05-22T11:23:52.635Z,15.60
2019-05-22T11:26:17.686Z,15.70
2019-05-22T11:28:45.616Z,15.80
2019-05-22T11:31:14.265Z,15.70
2019-05-22T11:33:42.295Z,15.80
2019-05-22T11:36:12.457Z,15.80
2019-05-22T11:38:41.699Z,15.80
2019-05-22T11:41:10.851Z,15.70
2019-05-22T11:43:39.302Z,15.70
2019-05-22T11:46:08.133Z,15.80
2019-05-22T11:48:36.067Z,16.10
2019-05-22T11:51:05.582Z,16.40
2019-05-22T11:53:34.526Z,16.70
2019-05-22T11:56:02.606Z,17.10
2019-05-22T11:58:32.616Z,17.30
2019-05-22T12:01:01.075Z,17.40
2019-05-22T12:03:31.107Z,17.40
2019-05-22T12:06:00.834Z,17.50
2019-05-22T12:08:29.094Z,17.70
2019-05-22T12:10:59.527Z,17.90
2019-05-22T12:13:29.029Z,18.00
2019-05-22T12:15:57.567Z,18.00
2019-05-22T12:18:26.500Z,18.20
2019-05-22T12:20:57.695Z,18.40
2019-05-22T12:23:29.588Z,18.40
2019-05-22T12:26:00.912Z,18.30
2019-05-22T12:28:29.132Z,18.20
2019-05-22T12:30:58.233Z,18.00
2019-05-22T12:33:26.144Z,18.00
2019-05-22T12:35:55.122Z,17.90
2019-05-22T12:38:26.701Z,17.80
2019-05-22T12:40:53.735Z,17.80
2019-05-22T12:43:23.513Z,17.70
2019-05-22T12:45:52.966Z,17.70
2019-05-22T12:48:21.514Z,17.90
2019-05-22T12:50:50.110Z,18.10
2019-05-22T12:53:20.968Z,18.00
2019-05-22T12:55:49.081Z,17.90
2019-05-22T12:58:18.356Z,17.80
2019-05-22T13:00:46.511Z,17.90
2019-05-22T13:03:15.024Z,17.90
2019-05-22T13:05:44.646Z,17.90
2019-05-22T13:08:13.821Z,18.00
2019-05-22T13:10:42.446Z,18.20
2019-05-22T13:13:10.979Z,18.10
2019-05-22T13:15:39.338Z,18.30
2019-05-22T13:18:09.402Z,18.60
2019-05-22T13:20:44.513Z,18.80
2019-05-22T13:23:19.725Z,18.80
2019-05-22T13:25:49.804Z,18.50
2019-05-22T13:28:19.215Z,18.40
2019-05-22T13:30:52.124Z,18.40
2019-05-22T13:33:24.238Z,18.60
2019-05-22T13:35:55.321Z,18.80
2019-05-22T13:38:23.576Z,19.00
2019-05-22T13:40:53.350Z,19.10
2019-05-22T13:43:21.936Z,19.10
2019-05-22T13:45:50.687Z,19.20
2019-05-22T13:48:18.690Z,19.20
2019-05-22T13:50:48.547Z,19.10
2019-05-22T13:53:17.359Z,19.30
2019-05-22T13:55:47.464Z,19.60
2019-05-22T13:58:17.997Z,19.70
2019-05-22T14:00:48.605Z,19.80
2019-05-22T14:03:17.880Z,19.90
2019-05-22T14:05:48.041Z,19.90
2019-05-22T14:08:18.083Z,20.00
2019-05-22T14:10:50.094Z,20.20
2019-05-22T14:13:19.391Z,20.10
2019-05-22T14:15:56.185Z,19.90
2019-05-22T14:18:19.041Z,19.70
2019-05-22T14:20:48.251Z,19.40
2019-05-22T14:23:16.679Z,19.30
2019-05-22T14:25:46.529Z,19.20
2019-05-22T14:28:17.314Z,19.00
2019-05-22T14:30:47.030Z,19.20
2019-05-22T14:33:15.739Z,19.40
2019-05-22T14:35:48.892Z,19.50
2019-05-22T14:38:16.089Z,19.50
2019-05-22T14:40:44.797Z,19.40
2019-05-22T14:43:13.523Z,19.20
2019-05-22T14:45:42.996Z,19.20
2019-05-22T14:48:13.392Z,19.20
2019-05-22T14:50:43.505Z,19.30
2019-05-22T14:53:13.212Z,19.60
2019-05-22T14:55:44.070Z,19.50
2019-05-22T14:58:15.247Z,19.50
2019-05-22T15:00:44.590Z,19.50
2019-05-22T15:03:13.928Z,19.80
2019-05-22T15:05:45.818Z,20.00
2019-05-22T15:08:14.351Z,20.10
2019-05-22T15:10:43.101Z,20.30
2019-05-22T15:13:12.216Z,20.30
2019-05-22T15:15:41.106Z,20.10
2019-05-22T15:18:10.332Z,20.10
2019-05-22T15:21:02.061Z,19.90
2019-05-22T15:23:32.983Z,20.00
2019-05-22T15:26:02.666Z,20.10
2019-05-22T15:28:32.504Z,20.20
2019-05-22T15:31:02.314Z,20.30
2019-05-22T15:33:32.486Z,20.30
2019-05-22T15:36:06.823Z,20.30
2019-05-22T15:38:40.443Z,20.30
2019-05-22T15:41:10.211Z,20.20
2019-05-22T15:43:41.809Z,20.20
2019-05-22T15:46:14.158Z,20.00
2019-05-22T15:48:44.728Z,19.90
2019-05-22T15:51:13.294Z,19.80
2019-05-22T15:53:45.317Z,19.70
2019-05-22T15:56:14.079Z,19.80
2019-05-22T15:58:50.903Z,19.70
2019-05-22T16:01:24.122Z,19.80
2019-05-22T16:03:54.564Z,19.80
2019-05-22T16:06:26.636Z,19.80
2019-05-22T16:09:01.042Z,19.70
2019-05-22T16:11:33.569Z,19.90
2019-05-22T16:14:02.854Z,19.80
2019-05-22T16:16:34.211Z,20.00
2019-05-22T16:19:05.126Z,20.10
2019-05-22T16:21:37.786Z,20.00
2019-05-22T16:24:10.144Z,19.80
2019-05-22T16:26:39.879Z,19.70
2019-05-22T16:29:08.390Z,19.80
2019-05-22T16:31:39.086Z,19.60
2019-05-22T16:34:09.320Z,19.80
2019-05-22T16:36:38.020Z,19.90
2019-05-22T16:39:10.489Z,20.10
2019-05-22T16:41:40.565Z,20.00
2019-05-22T16:44:08.970Z,19.90
2019-05-22T16:46:39.818Z,19.80
2019-05-22T16:49:10.238Z,19.70
2019-05-22T16:51:39.305Z,19.70
2019-05-22T16:54:12.337Z,19.60
2019-05-22T16:56:41.309Z,19.60
2019-05-22T16:59:10.675Z,19.70
2019-05-22T17:01:57.815Z,19.70
2019-05-22T17:04:11.537Z,19.60
2019-05-22T17:06:43.144Z,19.50
2019-05-22T17:09:21.007Z,19.40
2019-05-22T17:12:07.807Z,19.30
2019-05-22T17:14:52.686Z,19.20
2019-05-22T17:17:21.638Z,19.30
2019-05-22T17:20:05.181Z,19.30
2019-05-22T17:22:41.066Z,19.00
2019-05-22T17:25:31.012Z,19.00
2019-05-22T17:27:59.804Z,18.90
2019-05-22T17:30:31.813Z,18.70
2019-05-22T17:33:01.879Z,18.60
2019-05-22T17:35:34.766Z,18.50
2019-05-22T17:38:05.786Z,18.40
2019-05-22T17:40:36.028Z,18.30
2019-05-22T17:43:12.492Z,18.20
2019-05-22T17:45:48.532Z,18.10
2019-05-22T17:48:23.352Z,18.00
2019-05-22T17:50:53.721Z,18.00
2019-05-22T17:54:14.475Z,17.90
2019-05-22T18:00:34.443Z,18.00
2019-05-22T18:04:13.006Z,17.90
2019-05-22T18:08:21.250Z,17.80
2019-05-22T18:15:00.018Z,17.60
2019-05-22T18:18:03.858Z,17.60
2019-05-22T18:23:54.107Z,17.60
2019-05-22T18:26:23.367Z,17.30
2019-05-22T18:29:01.811Z,17.20
2019-05-22T18:31:32.732Z,17.20
2019-05-22T18:34:09.709Z,17.10
2019-05-22T18:36:37.842Z,17.10
2019-05-22T18:39:25.939Z,17.10
2019-05-22T18:41:58.599Z,17.10
2019-05-22T18:44:46.776Z,17.20
2019-05-22T18:47:18.317Z,17.00
2019-05-22T18:50:12.892Z,17.10
2019-05-22T18:52:46.929Z,17.10
2019-05-22T18:55:17.024Z,17.10
2019-05-22T18:57:57.418Z,17.10
2019-05-22T19:00:31.186Z,17.00
2019-05-22T19:03:00.296Z,17.00
2019-05-22T19:05:31.104Z,17.00
2019-05-22T19:08:03.049Z,17.00
2019-05-22T19:10:42.110Z,16.90
2019-05-22T19:13:14.251Z,17.00
2019-05-22T19:15:45.091Z,17.00
2019-05-22T19:18:37.542Z,16.90
2019-05-22T19:21:16.003Z,16.90
2019-05-22T19:30:46.763Z,16.70
2019-05-22T19:33:15.237Z,16.60
2019-05-22T19:36:06.967Z,16.50
2019-05-22T19:38:36.300Z,16.40
2019-05-22T19:41:07.751Z,16.30
2019-05-22T19:44:26.773Z,16.10
2019-05-22T19:46:53.750Z,16.00
2019-05-22T19:49:23.003Z,15.90
2019-05-22T19:51:51.383Z,15.80
2019-05-22T19:54:21.009Z,15.80
2019-05-22T19:56:49.782Z,15.70
2019-05-22T19:59:18.349Z,15.60
2019-05-22T20:01:46.720Z,15.70
2019-05-22T20:04:15.236Z,15.60
2019-05-22T20:06:43.326Z,15.50
2019-05-22T20:09:12.671Z,15.50
2019-05-22T20:11:41.232Z,15.40
2019-05-22T20:14:09.866Z,15.40
2019-05-22T20:16:38.927Z,15.30
2019-05-22T20:19:07.631Z,15.30
2019-05-22T20:21:36.909Z,15.20
2019-05-22T20:24:05.855Z,15.20
2019-05-22T20:26:33.886Z,15.20
2019-05-22T20:29:03.317Z,15.10
2019-05-22T20:31:33.902Z,15.00
2019-05-22T20:34:02.350Z,15.00
2019-05-22T20:36:31.380Z,15.00
2019-05-22T20:39:00.123Z,14.90
2019-05-22T20:41:29.568Z,14.90
2019-05-22T20:43:59.082Z,14.80
2019-05-22T20:46:30.140Z,14.80
2019-05-22T20:49:00.201Z,14.70
2019-05-22T20:51:28.567Z,14.60
2019-05-22T20:53:57.889Z,14.60
2019-05-22T20:56:29.001Z,14.60
2019-05-22T20:59:00.760Z,14.60
2019-05-22T21:01:33.082Z,14.50
2019-05-22T21:04:03.401Z,14.50
2019-05-22T21:06:39.220Z,14.40
2019-05-22T21:09:09.369Z,14.40
2019-05-22T21:11:39.704Z,14.30
2019-05-22T21:14:08.491Z,14.20
2019-05-22T21:16:37.640Z,14.10
2019-05-22T21:19:06.517Z,14.10
2019-05-22T21:21:35.992Z,14.10
2019-05-22T21:24:11.580Z,13.90
2019-05-22T21:26:34.716Z,13.80
2019-05-22T21:29:04.511Z,13.80
2019-05-22T21:31:33.964Z,13.70
2019-05-22T21:34:03.608Z,13.50
2019-05-22T21:36:33.209Z,13.50
2019-05-22T21:39:01.403Z,13.60
2019-05-22T21:41:33.895Z,13.50
2019-05-22T21:44:02.341Z,13.40
2019-05-22T21:46:30.664Z,13.20
2019-05-22T21:48:59.354Z,13.20
2019-05-22T21:51:29.109Z,13.20
2019-05-22T21:53:57.689Z,13.20
2019-05-22T21:56:25.905Z,13.10
2019-05-22T21:58:54.048Z,13.10
2019-05-22T22:01:30.382Z,13.10
2019-05-22T22:04:09.128Z,13.10
2019-05-22T22:06:38.848Z,13.10
2019-05-22T22:09:08.417Z,13.00
2019-05-22T22:11:37.890Z,13.00
2019-05-22T22:14:07.231Z,12.90
2019-05-22T22:16:35.667Z,12.80
2019-05-22T22:19:04.379Z,12.80
2019-05-22T22:21:33.798Z,12.80
2019-05-22T22:24:02.115Z,12.80
2019-05-22T22:26:31.273Z,12.80
2019-05-22T22:29:00.596Z,12.80
2019-05-22T22:31:31.179Z,12.80
2019-05-22T22:34:13.142Z,12.80
2019-05-22T22:36:42.933Z,12.80
2019-05-22T22:39:14.406Z,12.70
2019-05-22T22:41:45.572Z,12.70
2019-05-22T22:44:15.581Z,12.60
2019-05-22T22:46:51.269Z,12.50
2019-05-22T22:49:22.867Z,12.40
2019-05-22T22:51:52.496Z,12.40
2019-05-22T22:54:22.827Z,12.40
2019-05-22T22:56:52.152Z,12.40
2019-05-22T22:59:20.498Z,12.40
2019-05-22T23:01:52.727Z,12.40
2019-05-22T23:04:26.042Z,12.40
2019-05-22T23:06:58.959Z,12.20
2019-05-22T23:09:29.399Z,12.20
2019-05-22T23:11:59.947Z,12.20
2019-05-22T23:14:30.555Z,12.20
2019-05-22T23:17:00.114Z,12.20
2019-05-22T23:19:31.512Z,12.20
2019-05-22T23:22:07.603Z,12.10
2019-05-22T23:24:39.118Z,12.20
2019-05-22T23:27:08.728Z,12.10
2019-05-22T23:29:37.924Z,12.00
2019-05-22T23:32:08.804Z,11.90
2019-05-22T23:34:38.295Z,11.70
2019-05-22T23:37:10.070Z,11.80
2019-05-22T23:39:39.478Z,11.70
2019-05-22T23:42:12.482Z,11.50
2019-05-22T23:44:43.612Z,11.50
2019-05-22T23:47:13.486Z,11.60
2019-05-22T23:49:42.965Z,11.70
2019-05-22T23:52:13.808Z,11.70
2019-05-22T23:54:43.950Z,11.70
2019-05-22T23:57:14.005Z,11.70
2019-05-22T23:59:45.333Z,11.60
